sensor_id;sensor_type;location;lat;lon;timestamp;P1;durP1;ratioP1;P2;durP2;ratioP2
8500;SDS011;4288;48.484;10.024;2022-07-17T00:02:20;1.40;;;1.10;;
8500;SDS011;4288;48.484;10.024;2022-07-17T00:04:49;1.10;;;1.00;;
8500;SDS011;4288;48.484;10.024;2022-07-17T00:07:16;1.27;;;1.17;;
8500;SDS011;4288;48.484;10.024;2022-07-17T00:09:44;1.00;;;0.90;;
8500;SDS011;4288;48.484;10.024;2022-07-17T00:12:11;1.33;;;1.17;;
8500;SDS011;4288;48.484;10.024;2022-07-17T00:14:38;1.53;;;1.20;;
8500;SDS011;4288;48.484;10.024;2022-07-17T00:17:05;0.90;;;0.90;;
8500;SDS011;4288;48.484;10.024;2022-07-17T00:19:33;1.10;;;1.00;;
8500;SDS011;4288;48.484;10.024;2022-07-17T00:22:01;1.00;;;1.00;;
8500;SDS011;4288;48.484;10.024;2022-07-17T00:24:28;1.10;;;1.00;;
8500;SDS011;4288;48.484;10.024;2022-07-17T00:26:55;1.10;;;1.00;;
8500;SDS011;4288;48.484;10.024;2022-07-17T00:29:22;1.17;;;0.87;;
8500;SDS011;4288;48.484;10.024;2022-07-17T00:31:50;1.23;;;1.00;;
8500;SDS011;4288;48.484;10.024;2022-07-17T00:34:17;1.67;;;1.30;;
8500;SDS011;4288;48.484;10.024;2022-07-17T00:36:44;1.20;;;0.97;;
8500;SDS011;4288;48.484;10.024;2022-07-17T00:39:12;0.97;;;0.80;;
8500;SDS011;4288;48.484;10.024;2022-07-17T00:41:40;1.00;;;1.00;;
8500;SDS011;4288;48.484;10.024;2022-07-17T00:44:10;1.00;;;1.00;;
8500;SDS011;4288;48.484;10.024;2022-07-17T00:46:38;1.30;;;1.20;;
8500;SDS011;4288;48.484;10.024;2022-07-17T00:49:07;1.60;;;0.93;;
8500;SDS011;4288;48.484;10.024;2022-07-17T00:51:35;1.00;;;1.00;;
8500;SDS011;4288;48.484;10.024;2022-07-17T00:54:03;1.70;;;1.10;;
8500;SDS011;4288;48.484;10.024;2022-07-17T00:56:32;2.13;;;1.03;;
8500;SDS011;4288;48.484;10.024;2022-07-17T00:59:00;0.90;;;0.70;;
8500;SDS011;4288;48.484;10.024;2022-07-17T01:01:29;1.10;;;0.90;;
8500;SDS011;4288;48.484;10.024;2022-07-17T01:03:56;1.33;;;0.90;;
8500;SDS011;4288;48.484;10.024;2022-07-17T01:06:23;1.00;;;0.90;;
8500;SDS011;4288;48.484;10.024;2022-07-17T01:08:51;0.80;;;0.80;;
8500;SDS011;4288;48.484;10.024;2022-07-17T01:11:18;1.43;;;1.23;;
8500;SDS011;4288;48.484;10.024;2022-07-17T01:13:48;1.20;;;1.10;;
8500;SDS011;4288;48.484;10.024;2022-07-17T01:16:15;1.00;;;1.00;;
8500;SDS011;4288;48.484;10.024;2022-07-17T01:18:43;1.07;;;1.00;;
8500;SDS011;4288;48.484;10.024;2022-07-17T01:21:11;1.17;;;1.00;;
8500;SDS011;4288;48.484;10.024;2022-07-17T01:23:38;1.10;;;1.00;;
8500;SDS011;4288;48.484;10.024;2022-07-17T01:26:06;1.20;;;1.10;;
8500;SDS011;4288;48.484;10.024;2022-07-17T01:28:33;1.37;;;1.00;;
8500;SDS011;4288;48.484;10.024;2022-07-17T01:31:00;0.97;;;0.97;;
8500;SDS011;4288;48.484;10.024;2022-07-17T01:33:28;1.57;;;1.13;;
8500;SDS011;4288;48.484;10.024;2022-07-17T01:35:56;1.03;;;0.90;;
8500;SDS011;4288;48.484;10.024;2022-07-17T01:38:24;1.37;;;1.20;;
8500;SDS011;4288;48.484;10.024;2022-07-17T01:40:52;1.00;;;0.90;;
8500;SDS011;4288;48.484;10.024;2022-07-17T01:43:19;1.10;;;1.03;;
8500;SDS011;4288;48.484;10.024;2022-07-17T01:45:46;1.00;;;0.90;;
8500;SDS011;4288;48.484;10.024;2022-07-17T01:48:22;1.30;;;1.30;;
8500;SDS011;4288;48.484;10.024;2022-07-17T01:50:50;0.90;;;0.90;;
8500;SDS011;4288;48.484;10.024;2022-07-17T01:53:18;1.10;;;1.00;;
8500;SDS011;4288;48.484;10.024;2022-07-17T01:55:46;1.53;;;1.20;;
8500;SDS011;4288;48.484;10.024;2022-07-17T01:58:14;0.93;;;0.90;;
8500;SDS011;4288;48.484;10.024;2022-07-17T02:00:41;1.07;;;0.97;;
8500;SDS011;4288;48.484;10.024;2022-07-17T02:03:09;0.97;;;0.93;;
8500;SDS011;4288;48.484;10.024;2022-07-17T02:05:36;1.00;;;0.83;;
8500;SDS011;4288;48.484;10.024;2022-07-17T02:08:03;1.17;;;1.00;;
8500;SDS011;4288;48.484;10.024;2022-07-17T02:10:31;1.90;;;0.90;;
8500;SDS011;4288;48.484;10.024;2022-07-17T02:13:00;1.77;;;0.90;;
8500;SDS011;4288;48.484;10.024;2022-07-17T02:15:27;2.57;;;1.10;;
8500;SDS011;4288;48.484;10.024;2022-07-17T02:17:54;1.33;;;1.00;;
8500;SDS011;4288;48.484;10.024;2022-07-17T02:20:22;0.90;;;0.90;;
8500;SDS011;4288;48.484;10.024;2022-07-17T02:22:49;1.30;;;1.20;;
8500;SDS011;4288;48.484;10.024;2022-07-17T02:25:17;1.17;;;0.97;;
8500;SDS011;4288;48.484;10.024;2022-07-17T02:27:44;1.10;;;1.00;;
8500;SDS011;4288;48.484;10.024;2022-07-17T02:30:14;1.90;;;1.00;;
8500;SDS011;4288;48.484;10.024;2022-07-17T02:32:43;0.80;;;0.80;;
8500;SDS011;4288;48.484;10.024;2022-07-17T02:35:12;1.53;;;1.10;;
8500;SDS011;4288;48.484;10.024;2022-07-17T02:37:40;1.80;;;1.30;;
8500;SDS011;4288;48.484;10.024;2022-07-17T02:40:08;1.30;;;1.00;;
8500;SDS011;4288;48.484;10.024;2022-07-17T02:42:37;1.20;;;1.13;;
8500;SDS011;4288;48.484;10.024;2022-07-17T02:45:04;1.37;;;0.80;;
8500;SDS011;4288;48.484;10.024;2022-07-17T02:47:35;0.97;;;0.87;;
8500;SDS011;4288;48.484;10.024;2022-07-17T02:50:03;0.97;;;0.80;;
8500;SDS011;4288;48.484;10.024;2022-07-17T02:52:33;1.23;;;1.10;;
8500;SDS011;4288;48.484;10.024;2022-07-17T02:55:01;1.00;;;1.00;;
8500;SDS011;4288;48.484;10.024;2022-07-17T02:57:29;0.93;;;0.93;;
8500;SDS011;4288;48.484;10.024;2022-07-17T02:59:56;0.80;;;0.80;;
8500;SDS011;4288;48.484;10.024;2022-07-17T03:02:23;1.03;;;0.70;;
8500;SDS011;4288;48.484;10.024;2022-07-17T03:04:52;1.00;;;0.90;;
8500;SDS011;4288;48.484;10.024;2022-07-17T03:07:19;0.80;;;0.80;;
8500;SDS011;4288;48.484;10.024;2022-07-17T03:09:46;1.10;;;1.00;;
8500;SDS011;4288;48.484;10.024;2022-07-17T03:12:13;0.80;;;0.80;;
8500;SDS011;4288;48.484;10.024;2022-07-17T03:14:40;1.40;;;0.90;;
8500;SDS011;4288;48.484;10.024;2022-07-17T03:17:07;1.00;;;0.90;;
8500;SDS011;4288;48.484;10.024;2022-07-17T03:19:35;0.93;;;0.93;;
8500;SDS011;4288;48.484;10.024;2022-07-17T03:22:03;1.13;;;1.03;;
8500;SDS011;4288;48.484;10.024;2022-07-17T03:24:30;1.43;;;1.10;;
8500;SDS011;4288;48.484;10.024;2022-07-17T03:26:57;1.97;;;1.10;;
8500;SDS011;4288;48.484;10.024;2022-07-17T03:29:25;2.00;;;1.13;;
8500;SDS011;4288;48.484;10.024;2022-07-17T03:31:52;1.30;;;1.20;;
8500;SDS011;4288;48.484;10.024;2022-07-17T03:34:19;1.30;;;1.13;;
8500;SDS011;4288;48.484;10.024;2022-07-17T03:36:46;1.00;;;0.90;;
8500;SDS011;4288;48.484;10.024;2022-07-17T03:39:15;1.10;;;1.10;;
8500;SDS011;4288;48.484;10.024;2022-07-17T03:41:42;0.90;;;0.90;;
8500;SDS011;4288;48.484;10.024;2022-07-17T03:44:10;0.90;;;0.90;;
8500;SDS011;4288;48.484;10.024;2022-07-17T03:46:37;1.33;;;1.00;;
8500;SDS011;4288;48.484;10.024;2022-07-17T03:49:04;1.10;;;1.00;;
8500;SDS011;4288;48.484;10.024;2022-07-17T03:51:32;1.10;;;0.90;;
8500;SDS011;4288;48.484;10.024;2022-07-17T03:53:59;1.07;;;0.90;;
8500;SDS011;4288;48.484;10.024;2022-07-17T03:56:27;1.37;;;1.13;;
8500;SDS011;4288;48.484;10.024;2022-07-17T03:58:54;1.80;;;1.03;;
8500;SDS011;4288;48.484;10.024;2022-07-17T04:01:22;0.80;;;0.80;;
8500;SDS011;4288;48.484;10.024;2022-07-17T04:03:49;0.90;;;0.90;;
8500;SDS011;4288;48.484;10.024;2022-07-17T04:06:16;1.10;;;1.00;;
8500;SDS011;4288;48.484;10.024;2022-07-17T04:08:43;2.00;;;0.87;;
8500;SDS011;4288;48.484;10.024;2022-07-17T04:11:10;1.50;;;1.17;;
8500;SDS011;4288;48.484;10.024;2022-07-17T04:13:39;0.97;;;0.90;;
8500;SDS011;4288;48.484;10.024;2022-07-17T04:16:06;1.37;;;1.00;;
8500;SDS011;4288;48.484;10.024;2022-07-17T04:18:35;1.70;;;0.90;;
8500;SDS011;4288;48.484;10.024;2022-07-17T04:21:03;0.93;;;0.87;;
8500;SDS011;4288;48.484;10.024;2022-07-17T04:23:32;1.00;;;0.83;;
8500;SDS011;4288;48.484;10.024;2022-07-17T04:26:00;0.80;;;0.80;;
8500;SDS011;4288;48.484;10.024;2022-07-17T04:28:28;1.43;;;1.00;;
8500;SDS011;4288;48.484;10.024;2022-07-17T04:30:56;1.30;;;1.10;;
8500;SDS011;4288;48.484;10.024;2022-07-17T04:33:23;1.27;;;1.17;;
8500;SDS011;4288;48.484;10.024;2022-07-17T04:35:50;1.10;;;1.00;;
8500;SDS011;4288;48.484;10.024;2022-07-17T04:38:18;1.93;;;1.10;;
8500;SDS011;4288;48.484;10.024;2022-07-17T04:40:45;0.90;;;0.90;;
8500;SDS011;4288;48.484;10.024;2022-07-17T04:43:12;2.57;;;0.90;;
8500;SDS011;4288;48.484;10.024;2022-07-17T04:45:40;1.20;;;1.10;;
8500;SDS011;4288;48.484;10.024;2022-07-17T04:48:08;0.90;;;0.90;;
8500;SDS011;4288;48.484;10.024;2022-07-17T04:50:35;0.90;;;0.80;;
8500;SDS011;4288;48.484;10.024;2022-07-17T04:53:02;1.20;;;1.10;;
8500;SDS011;4288;48.484;10.024;2022-07-17T04:55:29;1.03;;;0.93;;
8500;SDS011;4288;48.484;10.024;2022-07-17T04:57:57;1.10;;;1.00;;
8500;SDS011;4288;48.484;10.024;2022-07-17T05:00:24;1.10;;;1.00;;
8500;SDS011;4288;48.484;10.024;2022-07-17T05:02:52;1.80;;;1.30;;
8500;SDS011;4288;48.484;10.024;2022-07-17T05:05:20;2.23;;;1.30;;
8500;SDS011;4288;48.484;10.024;2022-07-17T05:07:48;1.40;;;1.10;;
8500;SDS011;4288;48.484;10.024;2022-07-17T05:10:15;1.03;;;1.03;;
8500;SDS011;4288;48.484;10.024;2022-07-17T05:12:42;1.83;;;1.00;;
8500;SDS011;4288;48.484;10.024;2022-07-17T05:15:09;0.97;;;0.93;;
8500;SDS011;4288;48.484;10.024;2022-07-17T05:17:36;1.53;;;1.20;;
8500;SDS011;4288;48.484;10.024;2022-07-17T05:20:05;1.20;;;1.07;;
8500;SDS011;4288;48.484;10.024;2022-07-17T05:22:35;1.50;;;1.30;;
8500;SDS011;4288;48.484;10.024;2022-07-17T05:25:02;6.17;;;1.47;;
8500;SDS011;4288;48.484;10.024;2022-07-17T05:27:31;1.73;;;1.30;;
8500;SDS011;4288;48.484;10.024;2022-07-17T05:29:58;1.53;;;1.43;;
8500;SDS011;4288;48.484;10.024;2022-07-17T05:32:25;2.07;;;1.40;;
8500;SDS011;4288;48.484;10.024;2022-07-17T05:34:52;2.40;;;1.80;;
8500;SDS011;4288;48.484;10.024;2022-07-17T05:37:19;3.07;;;1.80;;
8500;SDS011;4288;48.484;10.024;2022-07-17T05:39:48;2.03;;;1.57;;
8500;SDS011;4288;48.484;10.024;2022-07-17T05:42:15;2.50;;;1.37;;
8500;SDS011;4288;48.484;10.024;2022-07-17T05:44:42;3.60;;;2.30;;
8500;SDS011;4288;48.484;10.024;2022-07-17T05:47:09;2.83;;;1.93;;
8500;SDS011;4288;48.484;10.024;2022-07-17T05:49:36;3.17;;;1.47;;
8500;SDS011;4288;48.484;10.024;2022-07-17T05:52:04;1.97;;;1.43;;
8500;SDS011;4288;48.484;10.024;2022-07-17T05:54:31;2.93;;;1.70;;
8500;SDS011;4288;48.484;10.024;2022-07-17T05:57:00;3.40;;;1.97;;
8500;SDS011;4288;48.484;10.024;2022-07-17T05:59:27;7.33;;;2.03;;
8500;SDS011;4288;48.484;10.024;2022-07-17T06:01:55;4.47;;;1.87;;
8500;SDS011;4288;48.484;10.024;2022-07-17T06:04:22;2.10;;;1.70;;
8500;SDS011;4288;48.484;10.024;2022-07-17T06:06:49;2.53;;;1.90;;
8500;SDS011;4288;48.484;10.024;2022-07-17T06:09:16;3.87;;;2.37;;
8500;SDS011;4288;48.484;10.024;2022-07-17T06:11:43;3.00;;;1.80;;
8500;SDS011;4288;48.484;10.024;2022-07-17T06:14:12;3.83;;;2.30;;
8500;SDS011;4288;48.484;10.024;2022-07-17T06:16:39;6.93;;;2.47;;
8500;SDS011;4288;48.484;10.024;2022-07-17T06:19:06;4.40;;;2.33;;
8500;SDS011;4288;48.484;10.024;2022-07-17T06:21:33;2.40;;;1.80;;
8500;SDS011;4288;48.484;10.024;2022-07-17T06:24:00;3.97;;;2.20;;
8500;SDS011;4288;48.484;10.024;2022-07-17T06:26:27;2.60;;;1.77;;
8500;SDS011;4288;48.484;10.024;2022-07-17T06:28:54;2.40;;;1.60;;
8500;SDS011;4288;48.484;10.024;2022-07-17T06:31:23;2.13;;;1.50;;
8500;SDS011;4288;48.484;10.024;2022-07-17T06:33:50;2.60;;;1.80;;
8500;SDS011;4288;48.484;10.024;2022-07-17T06:36:17;2.53;;;1.87;;
8500;SDS011;4288;48.484;10.024;2022-07-17T06:38:44;3.37;;;1.60;;
8500;SDS011;4288;48.484;10.024;2022-07-17T06:41:11;3.33;;;1.63;;
8500;SDS011;4288;48.484;10.024;2022-07-17T06:43:39;2.57;;;1.70;;
8500;SDS011;4288;48.484;10.024;2022-07-17T06:46:06;2.40;;;1.50;;
8500;SDS011;4288;48.484;10.024;2022-07-17T06:48:35;2.83;;;1.80;;
8500;SDS011;4288;48.484;10.024;2022-07-17T06:51:02;3.23;;;1.80;;
8500;SDS011;4288;48.484;10.024;2022-07-17T06:53:29;2.07;;;1.40;;
8500;SDS011;4288;48.484;10.024;2022-07-17T06:55:57;1.87;;;1.50;;
8500;SDS011;4288;48.484;10.024;2022-07-17T06:58:24;2.87;;;1.80;;
8500;SDS011;4288;48.484;10.024;2022-07-17T07:00:51;1.90;;;1.70;;
8500;SDS011;4288;48.484;10.024;2022-07-17T07:03:18;1.70;;;1.50;;
8500;SDS011;4288;48.484;10.024;2022-07-17T07:05:47;1.70;;;1.57;;
8500;SDS011;4288;48.484;10.024;2022-07-17T07:08:15;3.73;;;1.70;;
8500;SDS011;4288;48.484;10.024;2022-07-17T07:10:43;3.83;;;1.70;;
8500;SDS011;4288;48.484;10.024;2022-07-17T07:13:10;3.37;;;1.70;;
8500;SDS011;4288;48.484;10.024;2022-07-17T07:15:38;2.40;;;1.37;;
8500;SDS011;4288;48.484;10.024;2022-07-17T07:18:05;2.03;;;1.80;;
8500;SDS011;4288;48.484;10.024;2022-07-17T07:20:32;2.20;;;1.63;;
8500;SDS011;4288;48.484;10.024;2022-07-17T07:23:01;2.63;;;1.33;;
8500;SDS011;4288;48.484;10.024;2022-07-17T07:25:28;4.40;;;1.53;;
8500;SDS011;4288;48.484;10.024;2022-07-17T07:27:55;1.93;;;1.53;;
8500;SDS011;4288;48.484;10.024;2022-07-17T07:30:22;1.37;;;1.27;;
8500;SDS011;4288;48.484;10.024;2022-07-17T07:32:50;2.20;;;1.60;;
8500;SDS011;4288;48.484;10.024;2022-07-17T07:35:17;3.53;;;1.60;;
8500;SDS011;4288;48.484;10.024;2022-07-17T07:37:44;2.63;;;1.97;;
8500;SDS011;4288;48.484;10.024;2022-07-17T07:40:13;3.80;;;1.80;;
8500;SDS011;4288;48.484;10.024;2022-07-17T07:42:40;2.70;;;1.43;;
8500;SDS011;4288;48.484;10.024;2022-07-17T07:45:08;2.17;;;1.83;;
8500;SDS011;4288;48.484;10.024;2022-07-17T07:47:45;3.03;;;1.70;;
8500;SDS011;4288;48.484;10.024;2022-07-17T07:50:15;1.97;;;1.60;;
8500;SDS011;4288;48.484;10.024;2022-07-17T07:52:43;2.83;;;1.80;;
8500;SDS011;4288;48.484;10.024;2022-07-17T07:55:11;2.77;;;1.60;;
8500;SDS011;4288;48.484;10.024;2022-07-17T07:57:40;1.40;;;1.30;;
8500;SDS011;4288;48.484;10.024;2022-07-17T08:00:08;2.07;;;1.37;;
8500;SDS011;4288;48.484;10.024;2022-07-17T08:02:37;3.10;;;1.47;;
8500;SDS011;4288;48.484;10.024;2022-07-17T08:05:05;2.30;;;1.60;;
8500;SDS011;4288;48.484;10.024;2022-07-17T08:07:34;3.03;;;1.40;;
8500;SDS011;4288;48.484;10.024;2022-07-17T08:10:02;2.37;;;1.63;;
8500;SDS011;4288;48.484;10.024;2022-07-17T08:12:32;3.10;;;1.50;;
8500;SDS011;4288;48.484;10.024;2022-07-17T08:14:59;1.50;;;1.33;;
8500;SDS011;4288;48.484;10.024;2022-07-17T08:17:26;1.80;;;1.40;;
8500;SDS011;4288;48.484;10.024;2022-07-17T08:19:53;4.90;;;2.07;;
8500;SDS011;4288;48.484;10.024;2022-07-17T08:22:20;1.60;;;1.50;;
8500;SDS011;4288;48.484;10.024;2022-07-17T08:24:48;2.10;;;1.50;;
8500;SDS011;4288;48.484;10.024;2022-07-17T08:27:15;1.90;;;1.40;;
8500;SDS011;4288;48.484;10.024;2022-07-17T08:29:43;2.30;;;1.70;;
8500;SDS011;4288;48.484;10.024;2022-07-17T08:32:10;2.30;;;1.87;;
8500;SDS011;4288;48.484;10.024;2022-07-17T08:34:38;2.97;;;1.23;;
8500;SDS011;4288;48.484;10.024;2022-07-17T08:37:05;2.83;;;1.40;;
8500;SDS011;4288;48.484;10.024;2022-07-17T08:39:32;3.23;;;1.97;;
8500;SDS011;4288;48.484;10.024;2022-07-17T08:42:01;1.20;;;1.07;;
8500;SDS011;4288;48.484;10.024;2022-07-17T08:44:32;2.00;;;1.53;;
8500;SDS011;4288;48.484;10.024;2022-07-17T08:47:01;2.90;;;1.30;;
8500;SDS011;4288;48.484;10.024;2022-07-17T08:49:28;1.60;;;1.50;;
8500;SDS011;4288;48.484;10.024;2022-07-17T08:51:57;1.57;;;1.47;;
8500;SDS011;4288;48.484;10.024;2022-07-17T08:54:24;2.43;;;1.50;;
8500;SDS011;4288;48.484;10.024;2022-07-17T08:56:51;3.23;;;1.97;;
8500;SDS011;4288;48.484;10.024;2022-07-17T08:59:18;1.60;;;1.27;;
8500;SDS011;4288;48.484;10.024;2022-07-17T09:01:45;3.37;;;1.70;;
8500;SDS011;4288;48.484;10.024;2022-07-17T09:04:14;3.70;;;1.63;;
8500;SDS011;4288;48.484;10.024;2022-07-17T09:06:43;2.17;;;1.40;;
8500;SDS011;4288;48.484;10.024;2022-07-17T09:09:11;1.73;;;1.57;;
8500;SDS011;4288;48.484;10.024;2022-07-17T09:11:41;4.43;;;1.47;;
8500;SDS011;4288;48.484;10.024;2022-07-17T09:14:10;5.60;;;1.97;;
8500;SDS011;4288;48.484;10.024;2022-07-17T09:16:47;3.33;;;1.50;;
8500;SDS011;4288;48.484;10.024;2022-07-17T09:19:28;1.90;;;1.70;;
8500;SDS011;4288;48.484;10.024;2022-07-17T09:22:04;2.10;;;1.40;;
8500;SDS011;4288;48.484;10.024;2022-07-17T09:24:38;2.13;;;1.50;;
8500;SDS011;4288;48.484;10.024;2022-07-17T09:27:08;2.83;;;1.73;;
8500;SDS011;4288;48.484;10.024;2022-07-17T09:29:49;2.60;;;1.63;;
8500;SDS011;4288;48.484;10.024;2022-07-17T09:32:19;1.43;;;1.10;;
8500;SDS011;4288;48.484;10.024;2022-07-17T09:34:48;1.53;;;1.43;;
8500;SDS011;4288;48.484;10.024;2022-07-17T09:37:16;1.53;;;1.37;;
8500;SDS011;4288;48.484;10.024;2022-07-17T09:39:44;2.03;;;1.47;;
8500;SDS011;4288;48.484;10.024;2022-07-17T09:42:20;2.00;;;1.70;;
8500;SDS011;4288;48.484;10.024;2022-07-17T09:44:56;1.87;;;1.43;;
8500;SDS011;4288;48.484;10.024;2022-07-17T09:47:25;1.20;;;1.10;;
8500;SDS011;4288;48.484;10.024;2022-07-17T09:49:56;1.80;;;1.70;;
8500;SDS011;4288;48.484;10.024;2022-07-17T09:52:27;2.30;;;1.40;;
8500;SDS011;4288;48.484;10.024;2022-07-17T09:54:56;2.43;;;1.60;;
8500;SDS011;4288;48.484;10.024;2022-07-17T09:57:26;1.53;;;1.43;;
8500;SDS011;4288;48.484;10.024;2022-07-17T10:00:00;2.10;;;1.57;;
8500;SDS011;4288;48.484;10.024;2022-07-17T10:02:31;1.70;;;1.27;;
8500;SDS011;4288;48.484;10.024;2022-07-17T10:05:00;1.53;;;1.20;;
8500;SDS011;4288;48.484;10.024;2022-07-17T10:07:28;1.40;;;1.30;;
8500;SDS011;4288;48.484;10.024;2022-07-17T10:09:55;2.00;;;1.40;;
8500;SDS011;4288;48.484;10.024;2022-07-17T10:12:24;1.40;;;1.30;;
8500;SDS011;4288;48.484;10.024;2022-07-17T10:14:52;1.93;;;1.73;;
8500;SDS011;4288;48.484;10.024;2022-07-17T10:17:20;1.93;;;1.40;;
8500;SDS011;4288;48.484;10.024;2022-07-17T10:19:49;1.63;;;1.47;;
8500;SDS011;4288;48.484;10.024;2022-07-17T10:22:22;1.30;;;1.13;;
8500;SDS011;4288;48.484;10.024;2022-07-17T10:24:50;1.77;;;1.50;;
8500;SDS011;4288;48.484;10.024;2022-07-17T10:27:21;2.63;;;1.77;;
8500;SDS011;4288;48.484;10.024;2022-07-17T10:29:58;1.30;;;1.20;;
8500;SDS011;4288;48.484;10.024;2022-07-17T10:32:28;1.70;;;1.60;;
8500;SDS011;4288;48.484;10.024;2022-07-17T10:34:58;2.43;;;1.37;;
8500;SDS011;4288;48.484;10.024;2022-07-17T10:37:31;1.37;;;1.27;;
8500;SDS011;4288;48.484;10.024;2022-07-17T10:40:06;1.73;;;1.30;;
8500;SDS011;4288;48.484;10.024;2022-07-17T10:42:39;1.60;;;1.47;;
8500;SDS011;4288;48.484;10.024;2022-07-17T10:45:22;3.47;;;1.63;;
8500;SDS011;4288;48.484;10.024;2022-07-17T10:47:55;1.87;;;1.30;;
8500;SDS011;4288;48.484;10.024;2022-07-17T10:50:26;3.00;;;1.40;;
8500;SDS011;4288;48.484;10.024;2022-07-17T10:53:02;1.03;;;0.93;;
8500;SDS011;4288;48.484;10.024;2022-07-17T10:55:33;1.87;;;1.67;;
8500;SDS011;4288;48.484;10.024;2022-07-17T10:58:01;1.67;;;1.20;;
8500;SDS011;4288;48.484;10.024;2022-07-17T11:00:29;1.40;;;1.17;;
8500;SDS011;4288;48.484;10.024;2022-07-17T11:02:56;1.30;;;1.17;;
8500;SDS011;4288;48.484;10.024;2022-07-17T11:05:33;1.27;;;1.17;;
8500;SDS011;4288;48.484;10.024;2022-07-17T11:08:02;1.90;;;1.40;;
8500;SDS011;4288;48.484;10.024;2022-07-17T11:10:34;1.40;;;1.30;;
8500;SDS011;4288;48.484;10.024;2022-07-17T11:13:10;1.47;;;1.37;;
8500;SDS011;4288;48.484;10.024;2022-07-17T11:15:42;1.80;;;1.30;;
8500;SDS011;4288;48.484;10.024;2022-07-17T11:18:12;1.70;;;1.40;;
8500;SDS011;4288;48.484;10.024;2022-07-17T11:20:48;1.30;;;1.20;;
8500;SDS011;4288;48.484;10.024;2022-07-17T11:23:22;1.63;;;1.20;;
8500;SDS011;4288;48.484;10.024;2022-07-17T11:25:52;1.33;;;1.20;;
8500;SDS011;4288;48.484;10.024;2022-07-17T11:31:17;1.50;;;1.40;;
8500;SDS011;4288;48.484;10.024;2022-07-17T11:33:48;2.30;;;1.13;;
8500;SDS011;4288;48.484;10.024;2022-07-17T11:39:05;1.47;;;1.30;;
8500;SDS011;4288;48.484;10.024;2022-07-17T11:41:37;1.17;;;1.07;;
8500;SDS011;4288;48.484;10.024;2022-07-17T11:44:09;1.70;;;1.17;;
8500;SDS011;4288;48.484;10.024;2022-07-17T11:46:38;1.40;;;1.30;;
8500;SDS011;4288;48.484;10.024;2022-07-17T11:49:08;2.40;;;1.37;;
8500;SDS011;4288;48.484;10.024;2022-07-17T11:51:39;1.57;;;1.20;;
8500;SDS011;4288;48.484;10.024;2022-07-17T11:54:11;1.40;;;1.30;;
8500;SDS011;4288;48.484;10.024;2022-07-17T11:56:41;1.77;;;1.13;;
8500;SDS011;4288;48.484;10.024;2022-07-17T11:59:23;1.30;;;1.03;;
8500;SDS011;4288;48.484;10.024;2022-07-17T12:01:52;1.30;;;1.20;;
8500;SDS011;4288;48.484;10.024;2022-07-17T12:04:19;1.90;;;1.20;;
8500;SDS011;4288;48.484;10.024;2022-07-17T12:06:57;1.47;;;1.23;;
8500;SDS011;4288;48.484;10.024;2022-07-17T12:09:27;2.20;;;1.10;;
8500;SDS011;4288;48.484;10.024;2022-07-17T12:11:58;4.03;;;1.67;;
8500;SDS011;4288;48.484;10.024;2022-07-17T12:14:27;1.47;;;1.30;;
8500;SDS011;4288;48.484;10.024;2022-07-17T12:16:55;1.10;;;1.10;;
8500;SDS011;4288;48.484;10.024;2022-07-17T12:19:28;4.67;;;1.20;;
8500;SDS011;4288;48.484;10.024;2022-07-17T12:21:57;3.70;;;2.10;;
8500;SDS011;4288;48.484;10.024;2022-07-17T12:24:30;1.60;;;1.50;;
8500;SDS011;4288;48.484;10.024;2022-07-17T12:27:00;1.50;;;1.30;;
8500;SDS011;4288;48.484;10.024;2022-07-17T12:29:28;2.07;;;1.87;;
8500;SDS011;4288;48.484;10.024;2022-07-17T12:32:03;1.47;;;1.10;;
8500;SDS011;4288;48.484;10.024;2022-07-17T12:34:33;2.30;;;1.30;;
8500;SDS011;4288;48.484;10.024;2022-07-17T12:37:01;1.67;;;1.07;;
8500;SDS011;4288;48.484;10.024;2022-07-17T12:39:30;0.90;;;0.90;;
8500;SDS011;4288;48.484;10.024;2022-07-17T12:41:57;1.20;;;1.10;;
8500;SDS011;4288;48.484;10.024;2022-07-17T12:44:25;1.50;;;1.20;;
8500;SDS011;4288;48.484;10.024;2022-07-17T12:46:52;1.53;;;1.23;;
8500;SDS011;4288;48.484;10.024;2022-07-17T12:49:19;1.30;;;1.00;;
8500;SDS011;4288;48.484;10.024;2022-07-17T12:51:46;3.17;;;1.10;;
8500;SDS011;4288;48.484;10.024;2022-07-17T12:54:13;1.80;;;1.00;;
8500;SDS011;4288;48.484;10.024;2022-07-17T12:56:42;1.53;;;1.00;;
8500;SDS011;4288;48.484;10.024;2022-07-17T12:59:09;1.50;;;1.40;;
8500;SDS011;4288;48.484;10.024;2022-07-17T13:01:36;1.20;;;1.10;;
8500;SDS011;4288;48.484;10.024;2022-07-17T13:04:03;1.30;;;1.20;;
8500;SDS011;4288;48.484;10.024;2022-07-17T13:06:31;1.40;;;1.20;;
8500;SDS011;4288;48.484;10.024;2022-07-17T13:08:58;1.40;;;1.30;;
8500;SDS011;4288;48.484;10.024;2022-07-17T13:11:26;2.50;;;1.13;;
8500;SDS011;4288;48.484;10.024;2022-07-17T13:13:55;1.63;;;1.37;;
8500;SDS011;4288;48.484;10.024;2022-07-17T13:16:22;1.50;;;0.97;;
8500;SDS011;4288;48.484;10.024;2022-07-17T13:18:50;1.23;;;1.00;;
8500;SDS011;4288;48.484;10.024;2022-07-17T13:21:17;1.57;;;1.40;;
8500;SDS011;4288;48.484;10.024;2022-07-17T13:23:44;0.80;;;0.80;;
8500;SDS011;4288;48.484;10.024;2022-07-17T13:26:11;1.17;;;1.00;;
8500;SDS011;4288;48.484;10.024;2022-07-17T13:28:38;2.07;;;1.30;;
8500;SDS011;4288;48.484;10.024;2022-07-17T13:31:07;2.30;;;1.00;;
8500;SDS011;4288;48.484;10.024;2022-07-17T13:33:34;1.10;;;1.00;;
8500;SDS011;4288;48.484;10.024;2022-07-17T13:36:01;1.00;;;0.93;;
8500;SDS011;4288;48.484;10.024;2022-07-17T13:38:29;1.20;;;1.10;;
8500;SDS011;4288;48.484;10.024;2022-07-17T13:40:56;1.20;;;1.10;;
8500;SDS011;4288;48.484;10.024;2022-07-17T13:43:23;1.23;;;1.13;;
8500;SDS011;4288;48.484;10.024;2022-07-17T13:45:53;3.27;;;0.90;;
8500;SDS011;4288;48.484;10.024;2022-07-17T13:48:21;1.10;;;1.00;;
8500;SDS011;4288;48.484;10.024;2022-07-17T13:50:48;1.10;;;1.00;;
8500;SDS011;4288;48.484;10.024;2022-07-17T13:53:16;1.20;;;1.10;;
8500;SDS011;4288;48.484;10.024;2022-07-17T13:55:43;1.20;;;1.10;;
8500;SDS011;4288;48.484;10.024;2022-07-17T13:58:10;2.00;;;1.50;;
8500;SDS011;4288;48.484;10.024;2022-07-17T14:00:37;2.30;;;1.07;;
8500;SDS011;4288;48.484;10.024;2022-07-17T14:03:06;1.00;;;1.00;;
8500;SDS011;4288;48.484;10.024;2022-07-17T14:05:34;1.03;;;0.93;;
8500;SDS011;4288;48.484;10.024;2022-07-17T14:08:02;1.27;;;1.03;;
8500;SDS011;4288;48.484;10.024;2022-07-17T14:10:29;1.00;;;0.90;;
8500;SDS011;4288;48.484;10.024;2022-07-17T14:12:57;1.10;;;1.00;;
8500;SDS011;4288;48.484;10.024;2022-07-17T14:15:24;1.60;;;1.20;;
8500;SDS011;4288;48.484;10.024;2022-07-17T14:17:51;2.20;;;1.20;;
8500;SDS011;4288;48.484;10.024;2022-07-17T14:20:18;1.20;;;1.10;;
8500;SDS011;4288;48.484;10.024;2022-07-17T14:22:47;0.90;;;0.90;;
8500;SDS011;4288;48.484;10.024;2022-07-17T14:25:14;1.60;;;0.97;;
8500;SDS011;4288;48.484;10.024;2022-07-17T14:27:41;1.10;;;1.00;;
8500;SDS011;4288;48.484;10.024;2022-07-17T14:30:09;0.97;;;0.97;;
8500;SDS011;4288;48.484;10.024;2022-07-17T14:32:37;1.13;;;1.03;;
8500;SDS011;4288;48.484;10.024;2022-07-17T14:35:05;1.13;;;1.03;;
8500;SDS011;4288;48.484;10.024;2022-07-17T14:37:33;1.73;;;1.23;;
8500;SDS011;4288;48.484;10.024;2022-07-17T14:40:02;1.00;;;1.00;;
8500;SDS011;4288;48.484;10.024;2022-07-17T14:42:30;1.23;;;1.13;;
8500;SDS011;4288;48.484;10.024;2022-07-17T14:44:58;1.20;;;1.10;;
8500;SDS011;4288;48.484;10.024;2022-07-17T14:47:26;1.00;;;0.90;;
8500;SDS011;4288;48.484;10.024;2022-07-17T14:49:53;1.37;;;1.23;;
8500;SDS011;4288;48.484;10.024;2022-07-17T14:52:20;1.20;;;1.10;;
8500;SDS011;4288;48.484;10.024;2022-07-17T14:54:47;1.60;;;1.47;;
8500;SDS011;4288;48.484;10.024;2022-07-17T14:57:16;1.37;;;1.20;;
8500;SDS011;4288;48.484;10.024;2022-07-17T14:59:43;1.20;;;1.10;;
8500;SDS011;4288;48.484;10.024;2022-07-17T15:02:10;1.40;;;1.30;;
8500;SDS011;4288;48.484;10.024;2022-07-17T15:04:37;1.20;;;1.10;;
8500;SDS011;4288;48.484;10.024;2022-07-17T15:07:04;1.30;;;1.20;;
8500;SDS011;4288;48.484;10.024;2022-07-17T15:09:32;0.93;;;0.93;;
8500;SDS011;4288;48.484;10.024;2022-07-17T15:11:59;0.90;;;0.90;;
8500;SDS011;4288;48.484;10.024;2022-07-17T15:14:27;1.10;;;1.00;;